• Join FlightAware (Why Join?)
  • Login
  • US Flag 
07:13AM EDT


 

Airport Tracker/Info


-or-


 

Live Flight TrackerFlight Track Log ✈ UAL5419 ✈ 21-Jun-2013 ✈ KMKE - KORD

Flight Track Log - Related Links

Times and Time Zones

All times are in EDT time to prevent confusion due to time zone crossing. See the UAL5419 flight status page for this flight to view local times or setup timezone preferences in your user account.

Time Position Orientation Groundspeed Altitude Reporting Facility
EDT Latitude Longitude Course Direction KTS MPH feet Rate Location/Type
04:37PM 42.9333 -87.9000 188° South 155 178 1,500  Level KMKE
04:38PM 42.9000 -87.9667 236° Southwest 208 239 3,800 1,860 Climbing KMKE
04:39PM 42.8597 -88.0192 224° Southwest 220 253 5,200 2,160 Climbing Chicago Center
04:40PM 42.5894 -87.9007 182° South  Level Estimated
04:40PM 42.8089 -88.0922 227° Southwest 254 292 7,700  Level Chicago Center
04:41PM 42.5001 -87.9016 185° South  Level Estimated
04:41PM 42.7586 -88.1692 228° Southwest 267 307 8,000  Level Chicago Center
04:42PM 42.4115 -87.9177 188° South  Level FlightAware Approximate
04:42PM 42.7025 -88.2289 218° Southwest 274 315 8,000  Level Chicago Center
04:43PM 42.6333 -88.2186 174° South 247 284 7,900  Descending Chicago Center
04:44PM 42.5542 -88.2153 178° South 243 280 8,000  Climbing Chicago Center
04:45PM 42.5350 -88.2742 246° West 233 268 8,000  Level Chicago Center
04:46PM 42.5861 -88.3250 324° Northwest 231 266 8,000 -60 Level Chicago Center
04:47PM 42.6194 -88.2494 59° Northeast 264 304 7,900  Descending Chicago Center
04:48PM 42.5553 -88.2133 157° South 258 297 8,000 60 Climbing Chicago Center
04:49PM 42.4711 -88.1933 170° South 263 303 8,100  Climbing Chicago Center
04:50PM 42.4039 -88.2150 193° South 244 281 8,100  Level Chicago Center
04:51PM 42.3403 -88.2436 198° South 242 278 8,100 -420 Level Chicago Center
04:52PM 42.2775 -88.2503 184° South 241 277 7,300 -960 Descending Chicago Center
04:53PM 42.2047 -88.1764 143° Southeast 270 311 6,200 -840 Descending Chicago Center
04:54PM 42.1497 -88.1142 140° Southeast 264 304 5,600 -720 Descending Chicago Center
04:55PM 42.1167 -88.0667 133° Southeast 201 231 5,000 -1,200 Descending Chicago TRACON
04:56PM 42.0833 -88.0333 143° Southeast 173 199 3,500 -1,500 Descending Chicago TRACON